• Join FlightAware (Why Join?)
  • Login
  • US Flag 
08:56PM EDT


 

Airport Tracker/Info


-or-


 

Live Flight TrackerFlight Track Log ✈ SWA1725 ✈ 11-Apr-2013 ✈ KSMF - KMDW

Flight Track Log - Related Links

Times and Time Zones

All times are in EDT time to prevent confusion due to time zone crossing. See the SWA1725 flight status page for this flight to view local times or setup timezone preferences in your user account.

Time Position Orientation Groundspeed Altitude Reporting Facility
EDT Latitude Longitude Course Direction KTS MPH feet Rate Location/Type
05:43PM 38.7167 -121.6000 49° Northeast 144 166 1,300  Level Northern Cal TRACON
05:44PM 38.7500 -121.5500 49° Northeast 223 257 2,900 2,100 Climbing Northern Cal TRACON
05:45PM 38.7500 -121.4667 90° East 268 308 5,600 2,700 Climbing Northern Cal TRACON
05:47PM 38.7444 -121.2889 92° East 286 329 10,800 2,700 Climbing Oakland Center
05:48PM 38.7397 -121.1644 93° East 344 396 13,500 2,760 Climbing Oakland Center
05:49PM 38.7344 -121.0372 93° East 353 406 16,500 2,640 Climbing Oakland Center
05:50PM 38.7289 -120.9033 93° East 369 425 18,900 2,220 Climbing Oakland Center
05:51PM 38.7222 -120.7617 93° East 393 452 21,100 2,040 Climbing Oakland Center
05:52PM 38.7164 -120.6150 93° East 409 471 23,200 2,160 Climbing Oakland Center
05:53PM 38.7072 -120.4319 94° East 426 490 25,500 2,040 Climbing Oakland Center
05:54PM 38.6992 -120.2744 94° East 441 507 27,400 1,680 Climbing Oakland Center
05:55PM 38.6919 -120.1150 93° East 447 514 29,000 1,380 Climbing Oakland Center
05:56PM 38.6839 -119.9511 94° East 458 527 30,300 1,320 Climbing Oakland Center
05:57PM 38.6753 -119.7744 94° East 468 539 31,800 1,320 Climbing Oakland Center
05:58PM 38.6644 -119.6281 95° East 472 543 33,000 1,320 Climbing Oakland Center
05:59PM 38.6531 -119.4275 94° East 473 544 34,600 1,320 Climbing Oakland Center
06:00PM 38.6436 -119.2619 94° East 471 542 35,800 1,140 Climbing Oakland Center
06:01PM 38.6342 -119.0958 94° East 471 542 37,000 540 Climbing Oakland Center
06:02PM 38.6236 -118.9308 95° East 470 541 37,000  Level Oakland Center
06:03PM 38.6133 -118.7628 94° East 474 545 37,000  Level Oakland Center
06:04PM 38.6031 -118.5933 94° East 481 554 37,000  Level Oakland Center
06:05PM 38.5928 -118.4236 94° East 482 555 37,000  Level Oakland Center
06:06PM 38.6258 -118.2272 78° East 472 543 37,000  Level Oakland Center
06:07PM 38.6600 -118.0664 75° East 471 542 37,000  Level Oakland Center
06:08PM 38.6944 -117.9056 75° East 472 543 37,000  Level Oakland Center
06:09PM 38.7300 -117.7389 75° East 471 542 37,000  Level Oakland Center
06:10PM 38.7644 -117.5772 75° East 468 539 37,000  Level Oakland Center
06:11PM 38.7983 -117.4175 75° East 464 534 37,000  Level Oakland Center
06:12PM 38.8311 -117.2558 75° East 465 535 37,000  Level Salt Lake Center
06:13PM 38.8656 -117.0936 75° East 469 540 37,000  Level Salt Lake Center
06:14PM 38.9000 -116.9300 75° East 472 543 37,000  Level Oakland Center
06:15PM 38.9342 -116.7656 75° East 475 547 37,000  Level Salt Lake Center
06:16PM 38.9672 -116.6011 75° East 474 545 37,000  Level Salt Lake Center
06:17PM 39.0011 -116.4364 75° East 476 548 37,000  Level Salt Lake Center
06:18PM 39.0356 -116.2686 75° East 483 556 37,000  Level Salt Lake Center
06:19PM 39.0678 -116.1011 76° East 482 555 37,000  Level Salt Lake Center
06:20PM 39.1014 -115.9356 75° East 478 550 37,000  Level Salt Lake Center
06:21PM 39.1375 -115.7528 76° East 480 552 37,000  Level Salt Lake Center
06:22PM 39.1744 -115.5667 76° East 481 554 37,000  Level Salt Lake Center
06:23PM 39.2044 -115.4086 76° East 478 550 37,000  Level Salt Lake Center
06:24PM 39.2347 -115.2506 76° East 476 548 37,000  Level Salt Lake Center
06:25PM 39.2708 -115.0658 76° East 476 548 37,000  Level Salt Lake Center
06:26PM 39.2981 -114.9117 77° East 467 537 37,000  Level Salt Lake Center
06:28PM 39.3344 -114.7250 76° East 479 551 37,000  Level Salt Lake Center
06:29PM 39.3622 -114.5675 77° East 472 543 37,000  Level Salt Lake Center
06:30PM 39.3969 -114.3822 76° East 473 544 37,000  Level Salt Lake Center
06:31PM 39.4264 -114.2356 75° East 482 555 37,000  Level Salt Lake Center
06:32PM 39.4611 -114.0389 77° East 470 541 37,000  Level Salt Lake Center
06:33PM 39.4908 -113.8736 77° East 470 541 37,000  Level Salt Lake Center
06:34PM 39.5197 -113.7100 77° East 468 539 37,000  Level Salt Lake Center
06:35PM 39.5483 -113.5467 77° East 465 535 37,000  Level Salt Lake Center
06:36PM 39.5753 -113.3847 78° East 460 529 37,000  Level Salt Lake Center
06:37PM 39.6036 -113.2242 77° East 458 527 37,000  Level Salt Lake Center
06:38PM 39.6314 -113.0622 77° East 459 528 37,000  Level Salt Lake Center
06:39PM 39.6594 -112.9006 77° East 459 528 37,000  Level Salt Lake Center
06:40PM 39.6919 -112.7058 78° East 460 529 37,000  Level Salt Lake Center
06:41PM 39.7200 -112.5383 78° East 463 533 37,000  Level Salt Lake Center
06:42PM 39.7469 -112.3767 78° East 461 531 37,000  Level Salt Lake Center
06:43PM 39.7733 -112.2136 78° East 463 533 37,000  Level Salt Lake Center
06:44PM 39.8008 -112.0506 78° East 465 535 37,000  Level Salt Lake Center
06:45PM 39.8267 -111.8858 78° East 466 536 37,000  Level Salt Lake Center
06:46PM 39.8528 -111.7200 78° East 472 543 37,000  Level Salt Lake Center
06:47PM 39.8808 -111.5486 78° East 467 537 37,000  Level Salt Lake Center
06:48PM 39.9081 -111.3619 79° East 468 539 37,000  Level Salt Lake Center
06:49PM 39.9336 -111.2025 78° East 469 540 37,000  Level Salt Lake Center
06:50PM 39.9614 -111.0189 79° East 464 534 37,000  Level Salt Lake Center
06:51PM 39.9853 -110.8603 79° East 465 535 37,000  Level Salt Lake Center
06:52PM 40.0131 -110.6753 79° East 466 536 37,000  Level Salt Lake Center
06:53PM 40.0361 -110.5192 79° East 461 531 37,000  Level Salt Lake Center
06:54PM 40.0594 -110.3611 79° East 463 533 37,000  Level Salt Lake Center
06:55PM 40.0853 -110.1767 80° East 463 533 37,000  Level Salt Lake Center
06:56PM 40.1072 -110.0183 80° East 464 534 37,000  Level Salt Lake Center
06:57PM 40.1350 -109.8325 79° East 466 536 37,000  Level Salt Lake Center
06:58PM 40.1558 -109.6722 80° East 466 536 37,000  Level Salt Lake Center
06:59PM 40.1783 -109.5119 80° East 467 537 37,000  Level Salt Lake Center
07:00PM 40.2042 -109.3222 80° East 472 543 37,000  Level Salt Lake Center
07:01PM 40.2258 -109.1606 80° East 471 542 37,000  Level Salt Lake Center
07:02PM 40.2517 -108.9717 80° East 471 542 37,000  Level Salt Lake Center
07:03PM 40.2728 -108.8106 80° East 467 537 37,000  Level Salt Lake Center
07:05PM 40.2953 -108.6386 80° East 470 541 37,000  Level Salt Lake Center
07:06PM 40.3211 -108.4289 81° East 471 542 37,000  Level Denver Center
07:07PM 40.3428 -108.2683 80° East 467 537 37,000  Level Denver Center
07:08PM 40.3625 -108.1081 81° East 464 534 37,000  Level Denver Center
07:09PM 40.3853 -107.9214 81° East 465 535 37,000  Level Denver Center
07:10PM 40.4056 -107.7617 80° East 464 534 37,000  Level Denver Center
07:11PM 40.4286 -107.5717 81° East 470 541 37,000  Level Denver Center
07:12PM 40.4472 -107.4089 81° East 471 542 37,000  Level Denver Center
07:13PM 40.4700 -107.2169 81° East 474 545 37,000  Level Denver Center
07:14PM 40.4886 -107.0597 81° East 479 551 37,000  Level Denver Center
07:15PM 40.5078 -106.8861 82° East 478 550 37,000  Level Denver Center
07:16PM 40.5283 -106.7103 81° East 482 555 37,000  Level Denver Center
07:17PM 40.5486 -106.5322 81° East 487 560 37,000  Level Denver Center
07:18PM 40.5731 -106.3222 81° East 490 564 37,000  Level Denver Center
07:19PM 40.5903 -106.1414 83° East 498 573 37,000  Level Denver Center
07:20PM 40.6097 -105.9608 82° East 495 570 37,000  Level Denver Center
07:21PM 40.6272 -105.7811 83° East 491 565 37,000  Level Denver Center
07:22PM 40.6464 -105.5989 82° East 496 571 37,000  Level Denver Center
07:23PM 40.6650 -105.4189 82° East 491 565 37,000  Level Denver Center
07:24PM 40.6828 -105.2397 82° East 489 563 37,000  Level Denver Center
07:25PM 40.7036 -105.0292 82° East 490 564 37,000  Level Denver Center
07:26PM 40.7217 -104.8500 82° East 488 562 37,000  Level Denver Center
07:27PM 40.7381 -104.6678 83° East 492 566 37,000  Level Denver Center
07:28PM 40.7547 -104.4856 83° East 494 568 37,000  Level Denver Center
07:29PM 40.7719 -104.3039 83° East 495 570 37,000  Level Denver Center
07:30PM 40.7881 -104.1214 83° East 495 570 37,000  Level Denver Center
07:31PM 40.8031 -103.9419 84° East 488 562 37,000  Level Denver Center
07:32PM 40.8197 -103.7622 83° East 488 562 37,000  Level Denver Center
07:33PM 40.8344 -103.5819 84° East 488 562 37,000  Level Denver Center
07:34PM 40.8522 -103.3703 84° East 493 567 37,000  Level Denver Center
07:36PM 40.8667 -103.1900 84° East 491 565 37,000  Level Denver Center
07:37PM 40.8814 -103.0067 84° East 495 570 37,000  Level Denver Center
07:38PM 40.8942 -102.8308 84° East 500 575 37,000  Level Denver Center
07:39PM 40.9108 -102.6297 84° East 495 570 37,000  Level Denver Center
07:40PM 40.9233 -102.4575 84° East 493 567 37,000  Level Denver Center
07:41PM 40.9383 -102.2569 84° East 492 566 37,000  Level Denver Center
07:42PM 40.9533 -102.0553 84° East 492 566 37,000  Level Denver Center
07:43PM 40.9675 -101.8531 85° East 492 566 37,000  Level Denver Center
07:44PM 40.9797 -101.6792 85° East 495 570 37,000  Level Denver Center
07:45PM 40.9931 -101.4750 85° East 499 574 37,000  Level Denver Center
07:46PM 41.0047 -101.2997 85° East 499 574 37,000  Level Denver Center
07:47PM 41.0169 -101.0933 85° East 501 577 37,000  Level Denver Center
07:48PM 41.0283 -100.9175 85° East 497 572 37,000  Level Denver Center
07:49PM 41.0381 -100.7400 86° East 497 572 37,000  Level Denver Center
07:50PM 41.0511 -100.5344 85° East 495 570 37,000  Level Denver Center
07:51PM 41.0606 -100.3608 86° East 492 566 37,000  Level Denver Center
07:52PM 41.0722 -100.1578 86° East 493 567 37,000  Level Denver Center
07:53PM 41.0811 -99.9842 86° East 493 567 37,000  Level Denver Center
07:54PM 41.0914 -99.7836 86° East 490 564 37,000  Level Denver Center
07:55PM 41.1006 -99.6111 86° East 489 563 37,000  Level Denver Center
07:56PM 41.1100 -99.4194 86° East 492 566 37,000  Level Denver Center
07:57PM 41.1186 -99.2386 86° East 492 566 37,000  Level Denver Center
07:58PM 41.1267 -99.0611 86° East 495 570 37,000  Level Denver Center
08:00PM 41.1356 -98.8567 87° East 496 571 37,000  Level Denver Center
08:00PM 41.1394 -98.7828 86° East 496 571 37,000  Level Minneapolis Center
08:01PM 41.1461 -98.6003 87° East 496 571 37,000  Level Minneapolis Center
08:02PM 41.1533 -98.4153 87° East 497 572 37,000  Level Minneapolis Center
08:03PM 41.1606 -98.2292 87° East 501 577 37,000  Level Minneapolis Center
08:04PM 41.1681 -98.0036 87° East 506 582 37,000  Level Minneapolis Center
08:05PM 41.1744 -97.8139 87° East 510 587 37,000  Level Minneapolis Center
08:06PM 41.1758 -97.6225 89° East 515 593 37,000  Level Minneapolis Center
08:07PM 41.1269 -97.4517 111° Southeast 491 565 37,000  Level Minneapolis Center
08:08PM 41.0472 -97.3167 128° Southeast 476 548 37,000  Level Minneapolis Center
08:09PM 40.9628 -97.1811 129° Southeast 476 548 37,000  Level Minneapolis Center
08:10PM 40.8633 -97.0183 129° Southeast 476 548 37,000  Level Minneapolis Center
08:11PM 40.7817 -96.8858 129° Southeast 472 543 37,000  Level Minneapolis Center
08:12PM 40.6978 -96.7503 129° Southeast 475 547 37,000  Level Minneapolis Center
08:13PM 40.6289 -96.6033 122° Southeast 484 557 37,000  Level Minneapolis Center
08:14PM 40.6422 -96.4239 84° East 496 571 37,000  Level Minneapolis Center
08:15PM 40.6619 -96.2433 82° East 500 575 37,000  Level Minneapolis Center
08:16PM 40.6844 -96.0281 82° East 498 573 37,000  Level Minneapolis Center
08:17PM 40.7011 -95.8492 83° East 497 572 37,000  Level Minneapolis Center
08:19PM 40.7192 -95.6714 82° East 495 570 37,000  Level Minneapolis Center
08:20PM 40.7367 -95.4933 83° East 494 568 37,000  Level Minneapolis Center
08:21PM 40.7539 -95.3147 83° East 494 568 37,000  Level Minneapolis Center
08:22PM 40.7717 -95.1369 82° East 493 567 37,000  Level Minneapolis Center
08:23PM 40.7919 -94.9256 83° East 490 564 37,000  Level Minneapolis Center
08:24PM 40.8078 -94.7494 83° East 488 562 37,000  Level Minneapolis Center
08:25PM 40.8231 -94.5719 83° East 488 562 37,000  Level Minneapolis Center
08:26PM 40.8369 -94.3997 84° East 485 558 37,000  Level Minneapolis Center
08:27PM 40.8536 -94.2250 83° East 484 557 37,000  Level Minneapolis Center
08:28PM 40.8694 -94.0458 83° East 489 563 37,000  Level Minneapolis Center
08:29PM 40.8828 -93.8694 84° East 488 562 37,000  Level Minneapolis Center
08:30PM 40.8989 -93.6575 84° East 486 559 37,000 -300 Level Minneapolis Center
08:31PM 40.9153 -93.4800 83° East 488 562 36,400 -840 Descending Minneapolis Center
08:32PM 40.9292 -93.3039 84° East 486 559 35,400 -720 Descending Minneapolis Center
08:33PM 40.9419 -93.1317 84° East 477 549 35,000 -240 Descending Minneapolis Center
08:34PM 40.9558 -92.9536 84° East 481 554 35,000  Level Minneapolis Center
08:35PM 40.9650 -92.8425 84° East 493 567 35,000  Level Chicago Center
08:36PM 40.9781 -92.6603 85° East 497 572 35,000  Level Chicago Center
08:37PM 40.9936 -92.4444 84° East 494 568 35,000  Level Chicago Center
08:38PM 41.0067 -92.2639 84° East 494 568 35,000  Level Chicago Center
08:39PM 41.0194 -92.0783 85° East 505 581 35,000  Level Chicago Center
08:40PM 41.0322 -91.8931 85° East 508 585 35,000  Level Chicago Center
08:41PM 41.0428 -91.7044 86° East 512 589 35,000 -60 Level Chicago Center
08:42PM 41.0569 -91.4931 85° East 514 592 34,900 -1,320 Descending Chicago Center
08:43PM 41.0692 -91.3047 85° East 513 590 32,300 -2,520 Descending Chicago Center
08:44PM 41.0797 -91.1222 86° East 500 575 29,700 -2,460 Descending Chicago Center
08:45PM 41.0889 -90.9483 86° East 474 545 27,300 -1,980 Descending Chicago Center
08:46PM 41.0997 -90.7806 85° East 461 531 25,700 -1,620 Descending Chicago Center
08:47PM 41.1103 -90.5856 86° East 443 510 24,000 -1,200 Descending Chicago Center
08:48PM 41.1186 -90.4278 86° East 432 497 23,200 -1,320 Descending Chicago Center
08:49PM 41.1272 -90.2714 86° East 425 489 21,300 -1,860 Descending Chicago Center
08:50PM 41.1336 -90.1203 87° East 415 478 19,400 -2,040 Descending Chicago Center
08:51PM 41.1414 -89.9733 86° East 403 464 17,200 -2,040 Descending Chicago Center
08:52PM 41.1492 -89.8336 86° East 386 444 15,300 -1,020 Descending Chicago Center
08:53PM 41.1553 -89.6983 87° East 378 435 15,100 -120 Descending Chicago Center
08:54PM 41.1628 -89.5458 86° East 352 405 15,100  Level Chicago Center
08:55PM 41.1722 -89.4194 84° East 343 395 15,100 -420 Level Chicago Center
08:56PM 41.1806 -89.2886 85° East 352 405 14,300 -900 Descending Chicago Center
08:57PM 41.1886 -89.1636 85° East 354 407 13,300 -1,020 Descending Chicago Center
08:58PM 41.2292 -89.0469 65° Northeast 349 402 12,300 -1,080 Descending Chicago Center
08:59PM 41.2861 -88.9144 60° Northeast 345 397 11,100 -1,140 Descending Chicago Center
09:00PM 41.3325 -88.8106 59° Northeast 330 380 10,000 -1,200 Descending Chicago Center
09:01PM 41.3753 -88.7092 61° Northeast 318 366 8,700 -1,260 Descending Chicago Center
09:03PM 41.4208 -88.6100 58° Northeast 314 361 7,500 -1,020 Descending Chicago Center
09:04PM 41.4597 -88.5144 61° Northeast 297 342 6,600 -780 Descending Chicago Center
09:05PM 41.4775 -88.4131 77° East 282 325 6,000 -780 Descending Chicago Center
09:06PM 41.4989 -88.2906 77° East 282 325 5,000 -540 Descending Chicago Center
09:07PM 41.5161 -88.1922 77° East 273 314 5,000  Level Chicago Center
09:08PM 41.5336 -88.0922 77° East 273 314 5,000  Level Chicago Center
09:09PM 41.5517 -87.9906 77° East 276 318 5,000 -120 Level Chicago Center
09:10PM 41.5689 -87.8897 77° East 277 319 4,800 -600 Descending Chicago Center
09:11PM 41.5856 -87.7894 77° East 277 319 3,800 -780 Descending Chicago Center
09:12PM 41.5911 -87.6969 85° East 263 303 3,300 -660 Descending Chicago Center
09:13PM 41.6356 -87.6233 51° Northeast 232 267 2,500 -420 Descending Chicago Center
09:14PM 41.6861 -87.6211 North 213 245 2,500  Level Chicago Center
09:14PM 41.7000 -87.6333 327° Northwest 180 207 2,500 -480 Level Chicago TRACON
09:15PM 41.7333 -87.6833 312° West 172 198 1,900 -720 Descending Chicago TRACON
09:16PM 41.7667 -87.7333 312° West 136 157 1,100 -780 Descending Chicago TRACON